Time;durP1;ratioP1;P1;durP2;ratioP2;P2;SDS_P1;SDS_P2;PMS_P1;PMS_P2;Temp;Humidity;BMP_temperature;BMP_pressure;BME280_temperature;BME280_humidity;BME280_pressure;Samples;Min_cycle;Max_cycle;Signal;HPM_P1;HPM_P2
2022/03/29 00:00:48;;;;;;;;;;;20.60;40.40;;;;;;5045107;28;20399;-59
2022/03/29 00:03:14;;;;;;;;;;;20.60;40.30;;;;;;5063712;28;20379;-59
2022/03/29 00:05:39;;;;;;;;;;;20.60;40.30;;;;;;5044919;28;19920;-59
2022/03/29 00:08:05;;;;;;;;;;;20.60;40.30;;;;;;5062924;28;19927;-59
2022/03/29 00:10:30;;;;;;;;;;;20.60;40.20;;;;;;5056188;28;20033;-59
2022/03/29 00:12:55;;;;;;;;;;;20.60;40.30;;;;;;5044204;28;19982;-59
2022/03/29 00:15:21;;;;;;;;;;;20.60;40.40;;;;;;5046412;28;19919;-59
2022/03/29 00:17:47;;;;;;;;;;;20.50;40.30;;;;;;5044104;28;20039;-59
2022/03/29 00:20:13;;;;;;;;;;;20.50;41.10;;;;;;5031549;28;19994;-59
2022/03/29 00:22:39;;;;;;;;;;;20.50;40.40;;;;;;5059639;28;19916;-59
2022/03/29 00:25:05;;;;;;;;;;;20.50;40.30;;;;;;5040237;28;19919;-59
2022/03/29 00:27:30;;;;;;;;;;;20.50;40.30;;;;;;5059011;28;19912;-59
2022/03/29 00:29:56;;;;;;;;;;;20.50;40.30;;;;;;5061947;28;20373;-59
2022/03/29 00:32:21;;;;;;;;;;;20.50;40.30;;;;;;5047754;28;19917;-60
2022/03/29 00:34:47;;;;;;;;;;;20.50;40.30;;;;;;5063666;28;19912;-59
2022/03/29 00:37:12;;;;;;;;;;;20.40;40.30;;;;;;5045346;28;19991;-59
2022/03/29 00:39:38;;;;;;;;;;;20.40;40.30;;;;;;5043321;28;19924;-60
2022/03/29 00:42:03;;;;;;;;;;;20.40;40.40;;;;;;5044296;28;19986;-59
2022/03/29 00:44:32;;;;;;;;;;;20.40;40.40;;;;;;5061558;28;20367;-59
2022/03/29 00:46:58;;;;;;;;;;;20.40;40.40;;;;;;5042600;28;20326;-59
2022/03/29 00:49:24;;;;;;;;;;;20.30;40.40;;;;;;5048749;28;19919;-59
2022/03/29 00:51:49;;;;;;;;;;;20.30;40.40;;;;;;5047490;28;20295;-59
2022/03/29 00:54:15;;;;;;;;;;;20.30;40.50;;;;;;5059227;28;19912;-59
2022/03/29 00:56:40;;;;;;;;;;;20.30;40.50;;;;;;5049070;28;19923;-59
2022/03/29 00:59:06;;;;;;;;;;;20.30;40.50;;;;;;5043320;28;19919;-59
2022/03/29 01:01:31;;;;;;;;;;;20.30;40.40;;;;;;5055201;28;19916;-59
2022/03/29 01:03:57;;;;;;;;;;;20.30;40.40;;;;;;5058472;28;19916;-59
2022/03/29 01:06:23;;;;;;;;;;;20.30;40.50;;;;;;5050443;28;20080;-59
2022/03/29 01:08:48;;;;;;;;;;;20.20;40.40;;;;;;5062957;28;20359;-59
2022/03/29 01:11:15;;;;;;;;;;;20.20;40.40;;;;;;5046109;28;19920;-59
2022/03/29 01:13:43;;;;;;;;;;;20.20;40.40;;;;;;5028177;28;19992;-59
2022/03/29 01:18:53;;;;;;;;;;;20.40;40.50;;;;;;5052180;28;20351;-59
2022/03/29 01:21:20;;;;;;;;;;;20.60;40.30;;;;;;5050801;28;19924;-59
2022/03/29 01:23:45;;;;;;;;;;;20.70;40.00;;;;;;5048773;28;19956;-59
2022/03/29 01:26:11;;;;;;;;;;;20.90;39.70;;;;;;5046587;28;19959;-59
2022/03/29 01:28:36;;;;;;;;;;;21.10;39.60;;;;;;5044701;28;19912;-59
2022/03/29 01:31:02;;;;;;;;;;;21.30;39.10;;;;;;5028037;28;20132;-59
2022/03/29 01:33:27;;;;;;;;;;;21.60;38.80;;;;;;5051497;28;20415;-60
2022/03/29 01:35:53;;;;;;;;;;;21.90;38.30;;;;;;5046016;28;20299;-60
2022/03/29 01:38:18;;;;;;;;;;;22.10;37.90;;;;;;5046661;28;19921;-59
2022/03/29 01:40:44;;;;;;;;;;;22.40;37.60;;;;;;5040262;28;19943;-59
2022/03/29 01:43:11;;;;;;;;;;;22.60;37.20;;;;;;5060779;28;19999;-60
2022/03/29 01:45:37;;;;;;;;;;;22.70;36.90;;;;;;5044044;28;19948;-60
2022/03/29 01:48:02;;;;;;;;;;;22.80;36.70;;;;;;5062929;28;20017;-59
2022/03/29 01:50:28;;;;;;;;;;;22.90;36.60;;;;;;5056307;28;19962;-60
2022/03/29 01:52:53;;;;;;;;;;;22.90;36.50;;;;;;5048455;28;19913;-60
2022/03/29 01:55:19;;;;;;;;;;;22.90;36.40;;;;;;5046306;28;19985;-59
2022/03/29 01:57:45;;;;;;;;;;;22.80;36.50;;;;;;5057488;28;20338;-60
2022/03/29 02:02:55;;;;;;;;;;;22.70;36.70;;;;;;5052945;28;19947;-60
2022/03/29 02:05:21;;;;;;;;;;;22.70;36.90;;;;;;5046512;28;19913;-60
2022/03/29 02:07:46;;;;;;;;;;;22.60;36.80;;;;;;5043577;28;19917;-59
2022/03/29 02:10:15;;;;;;;;;;;22.50;37.00;;;;;;5062824;28;19912;-59
2022/03/29 02:12:41;;;;;;;;;;;22.40;37.00;;;;;;5050542;28;20019;-59
2022/03/29 02:15:06;;;;;;;;;;;22.30;37.20;;;;;;5058206;28;20024;-60
2022/03/29 02:17:32;;;;;;;;;;;22.30;37.30;;;;;;5044912;28;19913;-59
2022/03/29 02:19:58;;;;;;;;;;;22.20;37.40;;;;;;5042966;28;19935;-59
2022/03/29 02:22:23;;;;;;;;;;;22.20;37.50;;;;;;5049346;28;19912;-59
2022/03/29 02:24:49;;;;;;;;;;;22.10;37.50;;;;;;5048413;28;19930;-59
2022/03/29 02:27:14;;;;;;;;;;;22.00;37.60;;;;;;5041447;28;19970;-59
2022/03/29 02:29:39;;;;;;;;;;;21.90;37.70;;;;;;5043505;28;19917;-59
2022/03/29 02:32:05;;;;;;;;;;;21.90;37.90;;;;;;5062231;28;19999;-59
2022/03/29 02:34:31;;;;;;;;;;;21.70;37.90;;;;;;5048992;28;19943;-59
2022/03/29 02:36:56;;;;;;;;;;;21.70;38.10;;;;;;5064528;28;20414;-59
2022/03/29 02:39:22;;;;;;;;;;;21.70;38.20;;;;;;5061465;28;20342;-59
2022/03/29 02:41:47;;;;;;;;;;;21.70;38.20;;;;;;5043579;28;20366;-60
2022/03/29 02:44:13;;;;;;;;;;;21.70;38.30;;;;;;5064843;28;19958;-59
2022/03/29 02:46:38;;;;;;;;;;;21.60;38.20;;;;;;5066408;28;19992;-59
2022/03/29 02:49:03;;;;;;;;;;;21.50;38.90;;;;;;5055099;28;19921;-59
2022/03/29 02:51:29;;;;;;;;;;;21.50;38.40;;;;;;5057881;28;20391;-60
2022/03/29 02:53:54;;;;;;;;;;;21.50;38.50;;;;;;5058931;28;20322;-59
2022/03/29 02:56:20;;;;;;;;;;;21.40;38.40;;;;;;5047848;28;19921;-60
2022/03/29 02:58:45;;;;;;;;;;;21.50;38.50;;;;;;5061438;28;19916;-59
2022/03/29 03:01:11;;;;;;;;;;;21.50;38.50;;;;;;5064766;28;19969;-59
2022/03/29 03:03:36;;;;;;;;;;;21.50;38.50;;;;;;5051407;28;19927;-59
2022/03/29 03:06:02;;;;;;;;;;;21.60;38.40;;;;;;5045258;28;19912;-59
2022/03/29 03:08:27;;;;;;;;;;;21.70;38.30;;;;;;5059423;28;19913;-59
2022/03/29 03:10:53;;;;;;;;;;;21.70;38.10;;;;;;5061243;28;19952;-59
2022/03/29 03:13:18;;;;;;;;;;;21.80;38.00;;;;;;5044790;28;20722;-59
2022/03/29 03:15:44;;;;;;;;;;;21.90;37.90;;;;;;5061927;28;19935;-59
2022/03/29 03:18:09;;;;;;;;;;;22.00;37.80;;;;;;5049448;28;19917;-59
2022/03/29 03:20:35;;;;;;;;;;;22.10;37.70;;;;;;5049672;28;19920;-59
2022/03/29 03:23:00;;;;;;;;;;;22.00;37.50;;;;;;5062091;28;19916;-60
2022/03/29 03:25:26;;;;;;;;;;;22.00;37.40;;;;;;5058847;28;19916;-59
2022/03/29 03:27:51;;;;;;;;;;;22.00;37.40;;;;;;5064826;28;19939;-59
2022/03/29 03:30:17;;;;;;;;;;;22.00;37.50;;;;;;5066622;28;20356;-59
2022/03/29 03:32:42;;;;;;;;;;;21.90;37.60;;;;;;5046799;28;19968;-59
2022/03/29 03:35:08;;;;;;;;;;;21.80;37.70;;;;;;5045898;28;19920;-59
2022/03/29 03:37:34;;;;;;;;;;;21.80;37.80;;;;;;5056932;28;19978;-59
2022/03/29 03:40:00;;;;;;;;;;;21.70;37.80;;;;;;5064633;28;19921;-59
2022/03/29 03:42:25;;;;;;;;;;;21.70;37.90;;;;;;5033298;28;20048;-59
2022/03/29 03:44:51;;;;;;;;;;;21.70;38.00;;;;;;5043663;28;19913;-59
2022/03/29 03:47:16;;;;;;;;;;;21.60;38.00;;;;;;5030146;28;19913;-59
2022/03/29 03:49:42;;;;;;;;;;;21.60;38.00;;;;;;5050870;28;20257;-59
2022/03/29 03:52:07;;;;;;;;;;;21.60;38.00;;;;;;5044251;28;19981;-59
2022/03/29 03:54:36;;;;;;;;;;;21.50;38.00;;;;;;5061453;28;19912;-59
2022/03/29 03:57:02;;;;;;;;;;;21.50;38.80;;;;;;5045334;28;19912;-59
2022/03/29 03:59:27;;;;;;;;;;;21.40;38.20;;;;;;5045965;28;19917;-59
2022/03/29 04:01:52;;;;;;;;;;;21.40;38.30;;;;;;5047585;28;19920;-59
2022/03/29 04:04:18;;;;;;;;;;;21.30;38.40;;;;;;5039387;28;19920;-59
2022/03/29 04:06:44;;;;;;;;;;;21.30;38.40;;;;;;5048528;28;19924;-59
2022/03/29 04:09:09;;;;;;;;;;;21.40;38.50;;;;;;5049577;28;19938;-59
2022/03/29 04:11:35;;;;;;;;;;;21.40;38.40;;;;;;5029271;28;20013;-59
2022/03/29 04:14:01;;;;;;;;;;;21.50;38.40;;;;;;5043810;28;20423;-59
2022/03/29 04:16:27;;;;;;;;;;;21.60;38.30;;;;;;5041507;28;19948;-59
2022/03/29 04:18:52;;;;;;;;;;;21.70;38.10;;;;;;5046771;28;20001;-59
2022/03/29 04:21:18;;;;;;;;;;;21.80;38.00;;;;;;5044878;28;20119;-59
2022/03/29 04:23:43;;;;;;;;;;;21.90;37.90;;;;;;5042364;28;19913;-59
2022/03/29 04:26:09;;;;;;;;;;;22.00;37.60;;;;;;5066467;28;20452;-59
2022/03/29 04:28:34;;;;;;;;;;;22.10;37.50;;;;;;5028838;28;19920;-60
2022/03/29 04:31:00;;;;;;;;;;;22.10;37.30;;;;;;5029428;28;19920;-60
2022/03/29 04:33:25;;;;;;;;;;;22.10;37.10;;;;;;5033373;28;20010;-59
2022/03/29 04:35:51;;;;;;;;;;;22.20;37.20;;;;;;5060851;28;19913;-59
2022/03/29 04:38:16;;;;;;;;;;;22.10;37.10;;;;;;5064650;28;20363;-60
2022/03/29 04:40:42;;;;;;;;;;;22.10;37.20;;;;;;5043564;28;21920;-59
2022/03/29 04:43:07;;;;;;;;;;;22.00;37.20;;;;;;5045847;28;19919;-59
2022/03/29 04:45:33;;;;;;;;;;;22.00;37.40;;;;;;5059526;28;19918;-59
2022/03/29 04:47:58;;;;;;;;;;;21.90;37.50;;;;;;5042822;28;19995;-59
2022/03/29 04:50:23;;;;;;;;;;;21.80;37.60;;;;;;5062667;28;19924;-59
2022/03/29 04:52:49;;;;;;;;;;;21.80;37.70;;;;;;5066825;28;19919;-59
2022/03/29 04:55:15;;;;;;;;;;;21.70;37.70;;;;;;5048069;28;19913;-59
2022/03/29 04:57:44;;;;;;;;;;;21.70;38.40;;;;;;5046932;28;19913;-59
2022/03/29 05:00:11;;;;;;;;;;;21.60;37.80;;;;;;5034453;28;19924;-59
2022/03/29 05:02:36;;;;;;;;;;;21.60;37.70;;;;;;5056477;28;20007;-59
2022/03/29 05:05:02;;;;;;;;;;;21.60;37.90;;;;;;5043120;28;20011;-59
2022/03/29 05:07:28;;;;;;;;;;;21.60;37.90;;;;;;5042691;28;19982;-59
2022/03/29 05:09:54;;;;;;;;;;;21.60;37.90;;;;;;5034213;28;20516;-59
2022/03/29 05:12:19;;;;;;;;;;;21.50;37.90;;;;;;5043923;28;19939;-59
2022/03/29 05:14:45;;;;;;;;;;;21.50;37.90;;;;;;5048075;28;19916;-60
2022/03/29 05:17:10;;;;;;;;;;;21.50;37.90;;;;;;5051792;28;19927;-59
2022/03/29 05:19:36;;;;;;;;;;;21.50;37.90;;;;;;5065744;28;19928;-59
2022/03/29 05:22:02;;;;;;;;;;;21.60;37.90;;;;;;5062952;28;20273;-59
2022/03/29 05:24:27;;;;;;;;;;;21.60;37.80;;;;;;5059697;28;19909;-59
2022/03/29 05:26:53;;;;;;;;;;;21.60;37.70;;;;;;5036034;28;20399;-59
2022/03/29 05:29:18;;;;;;;;;;;21.70;37.70;;;;;;5061257;28;19962;-59
2022/03/29 05:31:44;;;;;;;;;;;21.70;37.60;;;;;;5045871;28;19923;-60
2022/03/29 05:34:09;;;;;;;;;;;21.80;37.50;;;;;;5046847;28;19913;-60
2022/03/29 05:36:35;;;;;;;;;;;21.80;37.40;;;;;;5052245;28;19916;-59
2022/03/29 05:39:01;;;;;;;;;;;21.90;37.30;;;;;;5031371;28;19912;-59
2022/03/29 05:41:27;;;;;;;;;;;21.90;37.20;;;;;;5050226;28;19943;-59
2022/03/29 05:43:52;;;;;;;;;;;21.90;37.20;;;;;;5046681;28;19912;-60
2022/03/29 05:49:02;;;;;;;;;;;21.80;37.20;;;;;;5060763;28;19920;-59
2022/03/29 05:51:28;;;;;;;;;;;21.80;37.20;;;;;;5027375;28;19913;-59
2022/03/29 05:53:54;;;;;;;;;;;21.70;37.20;;;;;;5041349;28;19952;-59
2022/03/29 05:56:19;;;;;;;;;;;21.70;37.40;;;;;;5043509;28;20016;-60
2022/03/29 05:58:45;;;;;;;;;;;21.70;37.50;;;;;;5044556;28;19919;-59
2022/03/29 06:01:10;;;;;;;;;;;21.60;37.50;;;;;;5046358;28;19917;-59
2022/03/29 06:03:36;;;;;;;;;;;21.60;37.50;;;;;;5048787;28;20372;-59
2022/03/29 06:06:01;;;;;;;;;;;21.60;37.50;;;;;;5056928;28;19919;-59
2022/03/29 06:08:27;;;;;;;;;;;21.50;37.40;;;;;;5048483;28;19916;-59
2022/03/29 06:10:55;;;;;;;;;;;21.50;37.40;;;;;;5035622;28;19919;-60
2022/03/29 06:13:21;;;;;;;;;;;21.50;37.40;;;;;;5066734;28;19923;-59
2022/03/29 06:15:46;;;;;;;;;;;21.40;37.40;;;;;;5050132;28;20383;-59
2022/03/29 06:18:12;;;;;;;;;;;21.50;37.50;;;;;;5065858;28;20382;-59
2022/03/29 06:20:38;;;;;;;;;;;21.40;37.50;;;;;;5065411;28;20676;-59
2022/03/29 06:23:03;;;;;;;;;;;21.30;37.50;;;;;;5051103;28;19913;-59
2022/03/29 06:25:32;;;;;;;;;;;21.30;37.60;;;;;;5030411;28;19921;-59
2022/03/29 06:27:57;;;;;;;;;;;21.40;37.80;;;;;;5049322;28;19916;-60
2022/03/29 06:30:23;;;;;;;;;;;21.40;37.80;;;;;;5062612;28;19920;-59
2022/03/29 06:32:49;;;;;;;;;;;21.40;37.70;;;;;;5039059;28;19913;-59
2022/03/29 06:35:21;;;;;;;;;;;21.50;37.80;;;;;;5058183;28;19923;-59
2022/03/29 06:37:47;;;;;;;;;;;21.50;37.70;;;;;;5081446;28;19950;-59
2022/03/29 06:40:13;;;;;;;;;;;21.60;37.60;;;;;;5050001;28;19916;-59
2022/03/29 06:42:39;;;;;;;;;;;21.60;37.40;;;;;;5019600;28;19924;-59
2022/03/29 06:45:04;;;;;;;;;;;21.60;37.20;;;;;;5054503;28;20011;-60
2022/03/29 06:47:30;;;;;;;;;;;21.70;37.20;;;;;;5041356;28;19919;-59
2022/03/29 06:49:56;;;;;;;;;;;21.70;37.10;;;;;;5074222;28;19915;-59
2022/03/29 06:52:26;;;;;;;;;;;21.70;37.20;;;;;;5039866;28;19909;-59
2022/03/29 06:54:54;;;;;;;;;;;21.70;37.20;;;;;;5039085;28;20322;-59
2022/03/29 06:57:20;;;;;;;;;;;21.70;37.20;;;;;;5072315;28;19917;-59
2022/03/29 06:59:45;;;;;;;;;;;21.70;37.20;;;;;;5072623;28;19995;-59
2022/03/29 07:02:11;;;;;;;;;;;21.60;37.20;;;;;;5039576;28;19915;-59
2022/03/29 07:04:37;;;;;;;;;;;21.60;37.30;;;;;;5056145;28;19923;-59
2022/03/29 07:07:03;;;;;;;;;;;21.60;37.40;;;;;;5074072;28;19919;-60
2022/03/29 07:12:13;;;;;;;;;;;21.50;37.40;;;;;;5058673;28;19927;-60
2022/03/29 07:14:39;;;;;;;;;;;21.50;37.40;;;;;;5059744;28;19935;-59
2022/03/29 07:17:13;;;;;;;;;;;21.50;37.40;;;;;;5059636;28;19924;-59
2022/03/29 07:19:38;;;;;;;;;;;21.50;37.30;;;;;;5068689;28;19912;-59
2022/03/29 07:22:04;;;;;;;;;;;21.40;37.40;;;;;;5047799;28;19938;-59
2022/03/29 07:24:30;;;;;;;;;;;21.40;37.40;;;;;;5084551;28;20089;-59
2022/03/29 07:26:56;;;;;;;;;;;21.40;37.40;;;;;;5065883;28;19927;-59
2022/03/29 07:29:21;;;;;;;;;;;21.40;38.00;;;;;;5036285;28;19917;-59
2022/03/29 07:31:47;;;;;;;;;;;21.40;37.30;;;;;;5055175;28;20390;-59
2022/03/29 07:34:12;;;;;;;;;;;21.30;38.10;;;;;;5061824;28;19935;-59
2022/03/29 07:36:38;;;;;;;;;;;21.20;38.40;;;;;;5077411;28;19908;-58
2022/03/29 07:39:04;;;;;;;;;;;21.30;38.60;;;;;;5063688;28;19912;-59
2022/03/29 07:41:29;;;;;;;;;;;21.40;38.40;;;;;;5055278;28;19927;-60
2022/03/29 07:43:54;;;;;;;;;;;21.60;38.20;;;;;;5053301;28;19912;-58
2022/03/29 07:46:20;;;;;;;;;;;21.70;38.00;;;;;;5080495;28;19915;-58
2022/03/29 07:48:45;;;;;;;;;;;21.80;37.80;;;;;;5073090;28;19994;-60
2022/03/29 07:51:11;;;;;;;;;;;22.00;37.50;;;;;;5056870;28;19917;-60
2022/03/29 07:53:37;;;;;;;;;;;22.20;37.70;;;;;;5078841;28;19923;-59
2022/03/29 07:56:04;;;;;;;;;;;22.40;36.80;;;;;;5055167;28;19957;-59
2022/03/29 07:58:29;;;;;;;;;;;22.60;36.50;;;;;;5057189;28;20024;-60
2022/03/29 08:00:55;;;;;;;;;;;22.70;36.20;;;;;;5058271;28;19916;-58
2022/03/29 08:03:21;;;;;;;;;;;22.90;35.90;;;;;;5067818;28;19916;-59
2022/03/29 08:05:47;;;;;;;;;;;23.00;35.90;;;;;;5075227;28;19914;-60
2022/03/29 08:08:14;;;;;;;;;;;23.10;35.90;;;;;;5069693;28;19924;-59
2022/03/29 08:10:40;;;;;;;;;;;23.10;35.80;;;;;;5043309;28;20306;-60
2022/03/29 08:13:07;;;;;;;;;;;23.20;35.60;;;;;;5046196;28;19921;-60
2022/03/29 08:15:33;;;;;;;;;;;23.30;35.50;;;;;;5060392;28;20018;-60
2022/03/29 08:17:58;;;;;;;;;;;23.30;35.40;;;;;;5088180;28;19951;-60
2022/03/29 08:20:24;;;;;;;;;;;23.30;35.40;;;;;;5049601;28;19936;-59
2022/03/29 08:22:53;;;;;;;;;;;23.30;35.50;;;;;;5040451;28;21275;-59
2022/03/29 08:25:19;;;;;;;;;;;23.30;35.40;;;;;;5048987;28;19974;-59
2022/03/29 08:27:45;;;;;;;;;;;23.30;35.40;;;;;;5038300;28;19917;-60
2022/03/29 08:30:11;;;;;;;;;;;23.30;35.50;;;;;;5033042;28;19917;-60
2022/03/29 08:32:36;;;;;;;;;;;23.30;35.40;;;;;;5020566;28;19913;-60
2022/03/29 08:35:02;;;;;;;;;;;23.30;35.50;;;;;;5023604;28;19912;-61
2022/03/29 08:37:28;;;;;;;;;;;23.30;35.40;;;;;;5030003;28;19913;-60
2022/03/29 08:39:54;;;;;;;;;;;23.30;35.20;;;;;;5024145;28;19971;-58
2022/03/29 08:42:20;;;;;;;;;;;23.20;35.20;;;;;;5033811;28;20344;-58
2022/03/29 08:44:46;;;;;;;;;;;23.10;35.60;;;;;;5046588;28;20358;-59
2022/03/29 08:47:12;;;;;;;;;;;23.10;35.80;;;;;;5032511;28;19997;-60
2022/03/29 08:49:37;;;;;;;;;;;23.10;35.80;;;;;;5050857;28;19916;-59
2022/03/29 08:52:06;;;;;;;;;;;23.00;35.90;;;;;;5014392;28;19913;-59
2022/03/29 08:54:32;;;;;;;;;;;22.90;35.90;;;;;;5029339;28;19909;-59
2022/03/29 08:56:58;;;;;;;;;;;22.80;35.80;;;;;;5039228;28;19953;-60
2022/03/29 08:59:25;;;;;;;;;;;22.80;35.80;;;;;;5016418;28;19908;-60
2022/03/29 09:01:51;;;;;;;;;;;23.00;35.90;;;;;;5029799;28;19917;-59
2022/03/29 09:04:20;;;;;;;;;;;23.10;35.80;;;;;;5029448;28;19923;-59
2022/03/29 09:06:56;;;;;;;;;;;23.20;35.60;;;;;;5041419;28;20465;-59
2022/03/29 09:09:22;;;;;;;;;;;23.30;35.50;;;;;;5037103;28;19924;-60
2022/03/29 09:11:48;;;;;;;;;;;23.30;35.40;;;;;;5010223;28;19913;-60
2022/03/29 09:14:13;;;;;;;;;;;23.40;35.40;;;;;;5030892;28;19909;-59
2022/03/29 09:16:41;;;;;;;;;;;23.40;35.20;;;;;;5030678;28;20396;-59
2022/03/29 09:19:09;;;;;;;;;;;23.50;35.10;;;;;;5019935;28;19913;-60
2022/03/29 09:21:41;;;;;;;;;;;23.40;35.00;;;;;;5063289;28;20443;-59
2022/03/29 09:24:08;;;;;;;;;;;23.40;35.10;;;;;;5050174;28;20261;-61
2022/03/29 09:26:33;;;;;;;;;;;23.40;35.20;;;;;;5083589;28;20120;-60
2022/03/29 09:28:59;;;;;;;;;;;23.40;35.20;;;;;;5057533;28;20361;-60
2022/03/29 09:31:26;;;;;;;;;;;23.40;35.30;;;;;;5064926;28;19917;-60
2022/03/29 09:33:52;;;;;;;;;;;23.40;35.20;;;;;;5074789;28;19934;-60
2022/03/29 09:36:20;;;;;;;;;;;23.40;35.10;;;;;;5060235;28;19920;-60
2022/03/29 09:38:47;;;;;;;;;;;23.40;35.10;;;;;;5050807;28;19916;-60
2022/03/29 09:41:20;;;;;;;;;;;23.40;35.10;;;;;;5056713;28;19920;-60
2022/03/29 09:44:09;;;;;;;;;;;23.40;35.10;;;;;;5067953;28;20267;-61
2022/03/29 09:46:53;;;;;;;;;;;23.40;35.20;;;;;;5069356;28;20382;-60
2022/03/29 09:49:20;;;;;;;;;;;23.40;35.10;;;;;;5085677;28;19908;-59
2022/03/29 09:51:45;;;;;;;;;;;23.40;35.10;;;;;;5058228;28;19919;-60
2022/03/29 09:54:11;;;;;;;;;;;23.40;35.10;;;;;;5073784;28;20003;-60
2022/03/29 09:56:36;;;;;;;;;;;23.40;35.00;;;;;;5088171;28;19909;-60
2022/03/29 09:59:17;;;;;;;;;;;23.50;35.00;;;;;;5075856;28;19913;-59
2022/03/29 10:01:46;;;;;;;;;;;23.60;34.90;;;;;;5062201;28;19919;-59
2022/03/29 10:04:12;;;;;;;;;;;23.60;34.90;;;;;;5074317;28;19970;-60
2022/03/29 10:06:37;;;;;;;;;;;23.60;34.80;;;;;;5053332;28;19917;-60
2022/03/29 10:11:47;;;;;;;;;;;23.60;34.60;;;;;;5064896;28;19923;-60
2022/03/29 10:14:13;;;;;;;;;;;23.70;34.60;;;;;;5059636;28;20011;-59
2022/03/29 10:16:38;;;;;;;;;;;23.60;34.60;;;;;;5061579;28;20003;-60
2022/03/29 10:19:04;;;;;;;;;;;23.60;34.70;;;;;;5086659;28;19993;-60
2022/03/29 10:21:29;;;;;;;;;;;23.60;34.80;;;;;;5088977;28;20020;-60
2022/03/29 10:23:55;;;;;;;;;;;23.50;34.80;;;;;;5041728;28;20368;-59
2022/03/29 10:26:21;;;;;;;;;;;23.50;34.70;;;;;;5076951;28;19914;-59
2022/03/29 10:28:47;;;;;;;;;;;23.50;35.00;;;;;;5058178;28;19961;-60
2022/03/29 10:31:25;;;;;;;;;;;23.40;35.00;;;;;;5059582;28;19915;-59
2022/03/29 10:34:08;;;;;;;;;;;23.40;35.10;;;;;;5058967;28;19962;-59
2022/03/29 10:36:34;;;;;;;;;;;23.40;35.30;;;;;;5053002;28;19909;-60
2022/03/29 10:38:59;;;;;;;;;;;23.30;35.20;;;;;;5066961;28;19924;-61
2022/03/29 10:41:28;;;;;;;;;;;23.40;35.20;;;;;;5094916;28;19930;-62
2022/03/29 10:43:54;;;;;;;;;;;23.40;35.80;;;;;;5071779;28;19912;-61
2022/03/29 10:46:24;;;;;;;;;;;23.50;35.00;;;;;;5086450;28;19927;-60
2022/03/29 10:49:09;;;;;;;;;;;23.50;34.80;;;;;;5089249;28;20244;-60
2022/03/29 10:51:34;;;;;;;;;;;23.60;34.90;;;;;;5076771;28;19915;-60
2022/03/29 10:54:23;;;;;;;;;;;23.60;34.80;;;;;;5075729;28;19916;-60
2022/03/29 10:56:58;;;;;;;;;;;23.60;34.70;;;;;;5075382;28;19919;-61
2022/03/29 10:59:24;;;;;;;;;;;23.70;34.70;;;;;;5064266;28;19919;-61
2022/03/29 11:02:09;;;;;;;;;;;23.70;34.70;;;;;;5040682;28;19924;-59
2022/03/29 11:04:34;;;;;;;;;;;23.70;34.60;;;;;;5072189;28;19959;-61
2022/03/29 11:07:06;;;;;;;;;;;23.80;34.50;;;;;;5056894;28;19997;-59
2022/03/29 11:09:34;;;;;;;;;;;23.80;34.50;;;;;;5060399;28;20031;-61
2022/03/29 11:12:00;;;;;;;;;;;23.90;34.50;;;;;;5057297;28;19923;-59
2022/03/29 11:14:39;;;;;;;;;;;24.00;34.40;;;;;;5046614;28;19913;-60
2022/03/29 11:17:11;;;;;;;;;;;23.90;34.30;;;;;;5055771;28;19917;-60
2022/03/29 11:19:49;;;;;;;;;;;24.00;34.30;;;;;;5050168;28;19921;-60
2022/03/29 11:22:36;;;;;;;;;;;24.00;34.30;;;;;;5042654;28;19921;-60
2022/03/29 11:25:02;;;;;;;;;;;24.00;34.30;;;;;;5042075;28;19912;-60
2022/03/29 11:27:29;;;;;;;;;;;24.00;34.20;;;;;;5036177;28;19920;-60
2022/03/29 11:29:55;;;;;;;;;;;24.00;34.20;;;;;;5039598;28;19909;-60
2022/03/29 11:32:20;;;;;;;;;;;24.00;34.30;;;;;;5056441;28;19908;-60
2022/03/29 11:34:46;;;;;;;;;;;24.00;34.40;;;;;;5076117;28;19978;-59
2022/03/29 11:37:25;;;;;;;;;;;24.00;34.50;;;;;;5077245;28;19912;-60
2022/03/29 11:39:50;;;;;;;;;;;24.00;34.60;;;;;;5053674;28;19969;-59
2022/03/29 11:42:15;;;;;;;;;;;24.00;34.80;;;;;;5038867;28;19916;-59
2022/03/29 11:44:41;;;;;;;;;;;23.90;35.50;;;;;;5061835;28;20234;-59
2022/03/29 11:47:07;;;;;;;;;;;23.90;34.90;;;;;;5064903;28;19920;-60
2022/03/29 11:49:37;;;;;;;;;;;24.00;35.00;;;;;;5068866;28;19943;-60
2022/03/29 11:52:06;;;;;;;;;;;24.00;34.90;;;;;;5074516;28;19958;-60
2022/03/29 11:54:37;;;;;;;;;;;24.10;34.90;;;;;;5081634;28;19916;-60
2022/03/29 11:57:12;;;;;;;;;;;24.10;34.80;;;;;;5033223;28;19916;-59
2022/03/29 11:59:37;;;;;;;;;;;24.10;34.80;;;;;;5053255;28;20307;-59
2022/03/29 12:02:03;;;;;;;;;;;24.20;34.80;;;;;;5036615;28;19924;-60
2022/03/29 12:04:31;;;;;;;;;;;24.20;34.70;;;;;;5093167;28;19944;-60
2022/03/29 12:06:57;;;;;;;;;;;24.20;34.70;;;;;;5048996;28;19916;-60
2022/03/29 12:09:23;;;;;;;;;;;24.20;35.30;;;;;;5055891;28;20015;-60
2022/03/29 12:11:48;;;;;;;;;;;24.10;34.80;;;;;;5056017;28;19978;-59
2022/03/29 12:14:14;;;;;;;;;;;24.10;34.90;;;;;;5074754;28;19912;-59
2022/03/29 12:16:41;;;;;;;;;;;24.10;34.90;;;;;;5046922;28;20130;-59
2022/03/29 12:19:07;;;;;;;;;;;24.10;34.90;;;;;;5054484;28;19909;-59
2022/03/29 12:21:32;;;;;;;;;;;24.00;34.80;;;;;;5046693;28;19985;-59
2022/03/29 12:24:02;;;;;;;;;;;24.00;34.80;;;;;;5092292;28;19908;-59
2022/03/29 12:26:28;;;;;;;;;;;24.00;35.00;;;;;;5057971;28;19908;-59
2022/03/29 12:28:53;;;;;;;;;;;24.00;35.10;;;;;;5060243;28;19908;-59
2022/03/29 12:31:20;;;;;;;;;;;24.00;35.00;;;;;;5040736;28;19959;-59
2022/03/29 12:33:45;;;;;;;;;;;24.00;34.90;;;;;;5035731;28;20300;-59
2022/03/29 12:36:12;;;;;;;;;;;24.00;34.80;;;;;;5039144;28;19931;-59
2022/03/29 12:38:41;;;;;;;;;;;24.10;34.90;;;;;;5069255;28;19958;-59
2022/03/29 12:41:08;;;;;;;;;;;24.10;34.80;;;;;;5038793;28;19976;-59
2022/03/29 12:43:35;;;;;;;;;;;24.10;34.90;;;;;;5069837;28;20379;-59
2022/03/29 12:46:01;;;;;;;;;;;24.10;34.80;;;;;;5073888;28;19956;-59
2022/03/29 12:48:28;;;;;;;;;;;24.10;34.70;;;;;;5054162;28;19909;-59
2022/03/29 12:50:54;;;;;;;;;;;24.20;34.60;;;;;;5081758;28;19911;-59
2022/03/29 12:53:19;;;;;;;;;;;24.20;34.50;;;;;;5055771;28;19917;-59
2022/03/29 12:55:55;;;;;;;;;;;24.30;34.60;;;;;;5054224;28;19955;-59
2022/03/29 12:58:34;;;;;;;;;;;24.30;34.40;;;;;;5045105;28;19955;-59
2022/03/29 13:01:01;;;;;;;;;;;24.30;34.50;;;;;;5067740;28;19989;-60
2022/03/29 13:03:26;;;;;;;;;;;24.30;34.50;;;;;;5045647;28;19908;-60
2022/03/29 13:05:52;;;;;;;;;;;24.30;34.40;;;;;;5058886;28;19939;-60
2022/03/29 13:08:23;;;;;;;;;;;24.30;34.40;;;;;;5093830;28;19948;-60
2022/03/29 13:10:52;;;;;;;;;;;24.30;34.30;;;;;;5059642;28;20372;-60
2022/03/29 13:13:22;;;;;;;;;;;24.30;34.30;;;;;;5069538;28;20301;-60
2022/03/29 13:15:51;;;;;;;;;;;24.30;34.30;;;;;;5064314;28;19934;-60
2022/03/29 13:18:30;;;;;;;;;;;24.40;34.30;;;;;;5045493;28;20014;-60
2022/03/29 13:21:09;;;;;;;;;;;24.40;34.20;;;;;;5029463;28;20304;-60
2022/03/29 13:23:39;;;;;;;;;;;24.30;34.20;;;;;;5037674;28;20657;-60
2022/03/29 13:26:05;;;;;;;;;;;24.40;34.30;;;;;;5024107;28;19947;-60
2022/03/29 13:28:31;;;;;;;;;;;24.30;34.30;;;;;;5059365;28;19977;-60
2022/03/29 13:30:57;;;;;;;;;;;24.30;34.20;;;;;;5048221;28;19908;-62
2022/03/29 13:33:22;;;;;;;;;;;24.30;34.30;;;;;;5048266;28;19913;-60
2022/03/29 13:35:50;;;;;;;;;;;24.30;34.30;;;;;;5055196;28;19908;-60
2022/03/29 13:38:22;;;;;;;;;;;24.30;34.30;;;;;;5049288;28;19917;-60
2022/03/29 13:40:48;;;;;;;;;;;24.30;34.30;;;;;;5041778;28;20043;-60
2022/03/29 13:43:14;;;;;;;;;;;24.30;34.30;;;;;;5047827;28;20424;-60
2022/03/29 13:45:40;;;;;;;;;;;24.30;34.30;;;;;;5052951;28;20431;-60
2022/03/29 13:48:05;;;;;;;;;;;24.30;34.20;;;;;;5059948;28;19960;-60
2022/03/29 13:50:31;;;;;;;;;;;24.30;34.10;;;;;;5034186;28;20007;-60
2022/03/29 13:52:56;;;;;;;;;;;24.40;34.10;;;;;;5033946;28;19923;-60
2022/03/29 13:55:22;;;;;;;;;;;24.40;34.10;;;;;;5033540;28;19916;-60
2022/03/29 13:57:47;;;;;;;;;;;24.50;34.00;;;;;;5042660;28;19909;-60
2022/03/29 14:00:15;;;;;;;;;;;24.60;34.00;;;;;;5040124;28;20330;-60
2022/03/29 14:02:41;;;;;;;;;;;24.60;33.90;;;;;;5042323;28;19915;-60
2022/03/29 14:05:06;;;;;;;;;;;24.60;33.80;;;;;;5066748;28;19920;-60
2022/03/29 14:07:32;;;;;;;;;;;24.60;33.70;;;;;;5040210;28;19920;-58
2022/03/29 14:09:58;;;;;;;;;;;24.60;33.70;;;;;;5039557;28;19947;-60
2022/03/29 14:12:23;;;;;;;;;;;24.60;33.70;;;;;;5042606;28;20288;-59
2022/03/29 14:14:49;;;;;;;;;;;24.60;33.80;;;;;;5041231;28;20017;-60
2022/03/29 14:17:14;;;;;;;;;;;24.60;33.80;;;;;;5047491;28;19912;-60
2022/03/29 14:19:40;;;;;;;;;;;24.60;33.80;;;;;;5055002;28;19923;-59
2022/03/29 14:22:05;;;;;;;;;;;24.50;33.70;;;;;;5059933;28;20331;-60
2022/03/29 14:24:30;;;;;;;;;;;24.50;33.80;;;;;;5073849;28;19931;-60
2022/03/29 14:26:57;;;;;;;;;;;24.40;33.80;;;;;;5090804;28;19938;-60